Time;durP1;ratioP1;P1;durP2;ratioP2;P2;SDS_P1;SDS_P2;PMS_P1;PMS_P2;Temp;Humidity;BMP_temperature;BMP_pressure;BME280_temperature;BME280_humidity;BME280_pressure;Samples;Min_cycle;Max_cycle;Signal;HPM_P1;HPM_P2
2022/03/22 00:02:05;;;;;;;15.90;10.38;;;;;;;;;;7373103;19;20147;-78
2022/03/22 00:04:39;;;;;;;14.70;10.07;;;;;;;;;;7379692;19;20138;-77
2022/03/22 00:07:09;;;;;;;16.75;10.27;;;;;;;;;;7381854;19;20633;-77
2022/03/22 00:09:39;;;;;;;15.35;9.55;;;;;;;;;;7385004;19;20746;-77
2022/03/22 00:12:12;;;;;;;14.73;10.07;;;;;;;;;;7384117;19;20127;-77
2022/03/22 00:14:44;;;;;;;13.20;10.05;;;;;;;;;;7384490;19;20140;-78
2022/03/22 00:17:14;;;;;;;16.35;9.20;;;;;;;;;;7381743;19;20161;-77
2022/03/22 00:19:47;;;;;;;15.05;10.25;;;;;;;;;;7384310;19;20147;-77
2022/03/22 00:22:17;;;;;;;15.55;10.52;;;;;;;;;;7381279;19;20135;-77
2022/03/22 00:24:46;;;;;;;14.98;8.57;;;;;;;;;;7381932;19;20132;-78
2022/03/22 00:27:16;;;;;;;13.90;11.50;;;;;;;;;;7385097;19;20143;-77
2022/03/22 00:29:46;;;;;;;17.13;10.35;;;;;;;;;;7381029;19;20128;-79
2022/03/22 00:32:17;;;;;;;13.20;9.68;;;;;;;;;;7378909;19;20833;-79
2022/03/22 00:34:49;;;;;;;16.48;10.63;;;;;;;;;;7384000;19;20139;-78
2022/03/22 00:37:20;;;;;;;12.63;8.65;;;;;;;;;;7376673;19;20135;-78
2022/03/22 00:39:49;;;;;;;14.10;9.40;;;;;;;;;;7376180;19;20154;-78
2022/03/22 00:42:19;;;;;;;15.68;10.27;;;;;;;;;;7376794;19;20186;-79
2022/03/22 00:44:48;;;;;;;15.00;9.68;;;;;;;;;;7380291;19;20135;-79
2022/03/22 00:47:18;;;;;;;14.45;9.15;;;;;;;;;;7382316;19;20789;-78
2022/03/22 00:49:50;;;;;;;14.30;9.88;;;;;;;;;;7384162;19;20146;-78
2022/03/22 00:52:20;;;;;;;15.23;10.07;;;;;;;;;;7379599;19;20161;-78
2022/03/22 00:54:49;;;;;;;16.35;10.80;;;;;;;;;;7375830;19;20550;-77
2022/03/22 00:57:19;;;;;;;15.13;9.27;;;;;;;;;;7381437;19;20137;-78
2022/03/22 01:02:30;;;;;;;16.23;9.63;;;;;;;;;;7383389;19;20155;-78
2022/03/22 01:05:03;;;;;;;14.90;9.05;;;;;;;;;;7379840;19;20139;-79
2022/03/22 01:07:33;;;;;;;14.75;9.23;;;;;;;;;;7379708;19;20644;-79
2022/03/22 01:10:05;;;;;;;13.13;9.43;;;;;;;;;;7378491;19;20597;-79
2022/03/22 01:12:35;;;;;;;14.05;8.73;;;;;;;;;;7381175;19;20207;-79
2022/03/22 01:15:08;;;;;;;14.15;9.38;;;;;;;;;;7381107;19;20127;-76
2022/03/22 01:17:41;;;;;;;16.23;9.50;;;;;;;;;;7372284;19;20140;-76
2022/03/22 01:20:16;;;;;;;17.20;9.98;;;;;;;;;;7379856;19;20144;-77
2022/03/22 01:22:47;;;;;;;14.45;9.32;;;;;;;;;;7376151;19;20616;-77
2022/03/22 01:25:17;;;;;;;14.93;8.82;;;;;;;;;;7377143;19;20206;-78
2022/03/22 01:27:48;;;;;;;12.13;9.18;;;;;;;;;;7365021;19;20163;-78
2022/03/22 01:30:19;;;;;;;14.23;8.80;;;;;;;;;;7357987;19;20147;-78
2022/03/22 01:32:51;;;;;;;11.90;8.57;;;;;;;;;;7378967;19;21093;-79
2022/03/22 01:35:23;;;;;;;12.40;8.85;;;;;;;;;;7379232;19;20131;-78
2022/03/22 01:37:54;;;;;;;14.52;9.95;;;;;;;;;;7374874;19;20139;-78
2022/03/22 01:40:25;;;;;;;13.82;10.05;;;;;;;;;;7369959;19;20127;-78
2022/03/22 01:42:54;;;;;;;14.10;9.20;;;;;;;;;;7373991;19;20921;-78
2022/03/22 01:45:24;;;;;;;14.80;8.70;;;;;;;;;;7374664;19;20141;-78
2022/03/22 01:47:54;;;;;;;12.40;9.27;;;;;;;;;;7377695;19;20131;-76
2022/03/22 01:50:29;;;;;;;14.45;8.88;;;;;;;;;;7375907;19;20139;-76
2022/03/22 01:52:59;;;;;;;13.77;10.25;;;;;;;;;;7374463;19;20132;-76
2022/03/22 01:55:29;;;;;;;13.15;8.52;;;;;;;;;;7374389;19;20186;-76
2022/03/22 01:58:00;;;;;;;14.45;9.55;;;;;;;;;;7374965;19;20174;-76
2022/03/22 02:00:32;;;;;;;13.43;9.20;;;;;;;;;;7373967;19;20156;-77
2022/03/22 02:05:57;;;;;;;13.88;8.68;;;;;;;;;;7416266;19;20226;-77
2022/03/22 02:08:29;;;;;;;15.57;10.77;;;;;;;;;;7415561;19;20135;-78
2022/03/22 02:10:59;;;;;;;14.00;8.73;;;;;;;;;;7417114;19;20139;-77
2022/03/22 02:13:29;;;;;;;15.02;9.93;;;;;;;;;;7410060;19;20131;-77
2022/03/22 02:16:00;;;;;;;12.57;9.25;;;;;;;;;;7411736;19;20185;-79
2022/03/22 02:18:30;;;;;;;12.98;8.15;;;;;;;;;;7418866;19;20147;-79
2022/03/22 02:21:02;;;;;;;11.70;8.88;;;;;;;;;;7418108;19;20126;-79
2022/03/22 02:23:49;;;;;;;14.10;9.70;;;;;;;;;;7415590;19;20145;-79
2022/03/22 02:26:19;;;;;;;13.18;8.98;;;;;;;;;;7427078;19;20186;-79
2022/03/22 02:28:53;;;;;;;14.95;9.60;;;;;;;;;;7424596;19;20136;-79
2022/03/22 02:31:22;;;;;;;15.95;9.55;;;;;;;;;;7427741;19;20146;-79
2022/03/22 02:33:52;;;;;;;17.08;9.63;;;;;;;;;;7427798;19;20135;-78
2022/03/22 02:36:22;;;;;;;19.58;10.20;;;;;;;;;;7428117;19;20132;-78
2022/03/22 02:38:55;;;;;;;14.13;10.98;;;;;;;;;;7430460;19;20156;-78
2022/03/22 02:41:25;;;;;;;16.73;9.95;;;;;;;;;;7430072;19;20140;-79
2022/03/22 02:43:55;;;;;;;14.27;9.65;;;;;;;;;;7407721;19;20156;-79
2022/03/22 02:46:24;;;;;;;13.60;8.85;;;;;;;;;;7396160;19;20147;-79
2022/03/22 02:48:54;;;;;;;14.65;9.93;;;;;;;;;;7392262;19;20211;-78
2022/03/22 02:51:24;;;;;;;16.67;9.93;;;;;;;;;;7387312;19;20596;-79
2022/03/22 02:53:56;;;;;;;11.82;7.97;;;;;;;;;;7384722;19;20160;-79
2022/03/22 02:56:26;;;;;;;14.27;10.50;;;;;;;;;;7384710;19;20179;-79
2022/03/22 02:58:55;;;;;;;13.73;9.43;;;;;;;;;;7382696;19;20148;-79
2022/03/22 03:01:25;;;;;;;12.60;9.50;;;;;;;;;;7382216;19;20684;-79
2022/03/22 03:03:55;;;;;;;14.30;9.18;;;;;;;;;;7381076;19;20203;-80
2022/03/22 03:06:24;;;;;;;16.88;10.40;;;;;;;;;;7387913;19;20132;-79
2022/03/22 03:08:57;;;;;;;14.52;10.25;;;;;;;;;;7384460;19;20143;-79
2022/03/22 03:11:28;;;;;;;16.15;9.48;;;;;;;;;;7385088;19;20141;-79
2022/03/22 03:16:41;;;;;;;15.00;9.60;;;;;;;;;;7379228;19;20607;-78
2022/03/22 03:19:11;;;;;;;15.65;9.88;;;;;;;;;;7382699;19;20238;-78
2022/03/22 03:21:40;;;;;;;15.57;10.50;;;;;;;;;;7381434;19;20224;-78
2022/03/22 03:24:12;;;;;;;17.70;10.40;;;;;;;;;;7381590;19;20562;-78
2022/03/22 03:26:42;;;;;;;16.10;9.40;;;;;;;;;;7379942;19;20499;-78
2022/03/22 03:29:11;;;;;;;16.25;10.52;;;;;;;;;;7382913;19;20241;-79
2022/03/22 03:31:41;;;;;;;18.52;10.25;;;;;;;;;;7380805;19;20147;-78
2022/03/22 03:34:10;;;;;;;13.10;10.00;;;;;;;;;;7381744;19;20199;-77
2022/03/22 03:36:40;;;;;;;16.13;9.70;;;;;;;;;;7383363;19;20166;-77
2022/03/22 03:39:12;;;;;;;16.13;11.52;;;;;;;;;;7380403;19;20607;-78
2022/03/22 03:47:14;;;;;;;13.15;10.07;;;;;;;;;;7383447;19;20168;-78
2022/03/22 03:49:44;;;;;;;17.50;11.40;;;;;;;;;;7383845;19;20136;-78
2022/03/22 03:52:14;;;;;;;16.88;10.40;;;;;;;;;;7380415;19;20207;-78
2022/03/22 03:54:47;;;;;;;15.20;10.55;;;;;;;;;;7378414;19;20152;-78
2022/03/22 03:57:19;;;;;;;16.92;10.35;;;;;;;;;;7378068;19;20142;-79
2022/03/22 03:59:49;;;;;;;16.40;10.70;;;;;;;;;;7384918;19;20174;-78
2022/03/22 04:02:19;;;;;;;14.68;11.05;;;;;;;;;;7380193;19;20766;-80
2022/03/22 04:04:51;;;;;;;14.55;10.18;;;;;;;;;;7379511;19;20154;-78
2022/03/22 04:07:22;;;;;;;15.95;11.05;;;;;;;;;;7383486;19;20541;-78
2022/03/22 04:09:54;;;;;;;14.73;10.27;;;;;;;;;;7382742;19;20344;-80
2022/03/22 04:12:24;;;;;;;14.98;10.30;;;;;;;;;;7377756;19;20150;-77
2022/03/22 04:14:54;;;;;;;16.15;10.45;;;;;;;;;;7381020;19;20139;-78
2022/03/22 04:17:24;;;;;;;18.55;10.27;;;;;;;;;;7373189;19;20143;-77
2022/03/22 04:19:56;;;;;;;18.15;11.40;;;;;;;;;;7384190;19;20135;-78
2022/03/22 04:22:27;;;;;;;18.92;12.48;;;;;;;;;;7380074;19;20147;-78
2022/03/22 04:24:59;;;;;;;19.10;11.48;;;;;;;;;;7380192;19;20179;-78
2022/03/22 04:33:11;;;;;;;15.05;10.68;;;;;;;;;;7377274;19;20214;-78
2022/03/22 04:35:41;;;;;;;17.58;10.20;;;;;;;;;;7380241;19;20229;-78
2022/03/22 04:38:11;;;;;;;16.27;10.27;;;;;;;;;;7379720;19;20127;-77
2022/03/22 04:40:43;;;;;;;16.75;10.85;;;;;;;;;;7376723;19;20132;-78
2022/03/22 04:43:13;;;;;;;16.00;10.68;;;;;;;;;;7376784;19;20537;-78
2022/03/22 04:45:43;;;;;;;19.48;11.70;;;;;;;;;;7372103;19;20980;-78
2022/03/22 04:48:13;;;;;;;19.13;11.98;;;;;;;;;;7372355;19;20144;-78
2022/03/22 04:50:45;;;;;;;18.52;10.90;;;;;;;;;;7373437;19;20496;-78
2022/03/22 04:58:41;;;;;;;17.98;10.90;;;;;;;;;;7378305;19;20140;-78
2022/03/22 05:01:15;;;;;;;20.30;12.45;;;;;;;;;;7380939;19;20147;-79
2022/03/22 05:03:45;;;;;;;18.50;12.27;;;;;;;;;;7376541;19;20501;-77
2022/03/22 05:06:35;;;;;;;20.42;10.95;;;;;;;;;;7370149;19;20137;-76
2022/03/22 05:09:05;;;;;;;26.98;12.40;;;;;;;;;;7379149;19;20201;-78
2022/03/22 05:11:37;;;;;;;17.73;11.68;;;;;;;;;;7378617;19;20478;-79
2022/03/22 05:14:08;;;;;;;18.13;11.75;;;;;;;;;;7378698;19;21403;-77
2022/03/22 05:16:39;;;;;;;18.17;12.18;;;;;;;;;;7380054;19;20143;-78
2022/03/22 05:19:08;;;;;;;23.10;12.27;;;;;;;;;;7378121;19;20143;-78
2022/03/22 05:21:38;;;;;;;19.77;11.70;;;;;;;;;;7375874;19;20182;-79
2022/03/22 05:24:08;;;;;;;19.35;12.23;;;;;;;;;;7380697;19;20472;-77
2022/03/22 05:26:40;;;;;;;18.98;12.10;;;;;;;;;;7380988;19;20143;-78
2022/03/22 05:29:10;;;;;;;21.42;12.40;;;;;;;;;;7382081;19;20143;-77
2022/03/22 05:31:39;;;;;;;17.10;11.18;;;;;;;;;;7381293;19;20180;-78
2022/03/22 05:34:09;;;;;;;19.05;12.50;;;;;;;;;;7386087;19;20182;-76
2022/03/22 05:36:39;;;;;;;16.45;11.73;;;;;;;;;;7391499;19;20226;-77
2022/03/22 05:39:11;;;;;;;22.25;12.38;;;;;;;;;;7394206;19;20153;-76
2022/03/22 05:41:44;;;;;;;20.38;12.65;;;;;;;;;;7395521;19;20509;-77
2022/03/22 05:44:14;;;;;;;16.40;11.60;;;;;;;;;;7405199;19;20127;-80
2022/03/22 05:46:44;;;;;;;16.33;12.88;;;;;;;;;;7407832;19;20132;-79
2022/03/22 05:49:14;;;;;;;23.00;13.70;;;;;;;;;;7418583;19;20183;-78
2022/03/22 05:51:43;;;;;;;18.95;13.15;;;;;;;;;;7419594;19;20470;-79
2022/03/22 05:54:13;;;;;;;20.45;12.93;;;;;;;;;;7416773;19;20175;-79
2022/03/22 05:56:45;;;;;;;18.33;12.18;;;;;;;;;;7411708;19;20166;-79
2022/03/22 05:59:15;;;;;;;17.55;11.52;;;;;;;;;;7418249;19;20167;-78
2022/03/22 06:01:44;;;;;;;20.92;12.90;;;;;;;;;;7419620;19;20127;-78
2022/03/22 06:04:14;;;;;;;22.70;13.82;;;;;;;;;;7415740;19;20127;-79
2022/03/22 06:06:44;;;;;;;19.90;12.73;;;;;;;;;;7423771;19;20175;-79
2022/03/22 06:09:15;;;;;;;21.67;12.88;;;;;;;;;;7420208;19;20128;-79
2022/03/22 06:11:47;;;;;;;23.20;13.40;;;;;;;;;;7424663;19;20152;-79
2022/03/22 06:14:17;;;;;;;22.58;13.45;;;;;;;;;;7429596;19;20135;-79
2022/03/22 06:16:46;;;;;;;24.10;14.57;;;;;;;;;;7430255;19;20236;-79
2022/03/22 06:19:16;;;;;;;19.30;13.23;;;;;;;;;;7431327;19;20131;-78
2022/03/22 06:21:46;;;;;;;20.75;12.82;;;;;;;;;;7424328;19;20140;-79
2022/03/22 06:24:16;;;;;;;20.83;12.02;;;;;;;;;;7393852;19;20131;-80
2022/03/22 06:26:48;;;;;;;22.17;12.80;;;;;;;;;;7395203;19;20777;-80
2022/03/22 06:29:18;;;;;;;21.73;13.27;;;;;;;;;;7391124;19;20217;-80
2022/03/22 06:31:47;;;;;;;20.95;12.32;;;;;;;;;;7386130;19;20305;-79
2022/03/22 06:34:19;;;;;;;20.83;13.35;;;;;;;;;;7384452;19;20135;-79
2022/03/22 06:36:54;;;;;;;21.13;13.18;;;;;;;;;;7385193;19;20145;-79
2022/03/22 06:39:23;;;;;;;23.35;13.73;;;;;;;;;;7389467;19;20174;-79
2022/03/22 06:41:58;;;;;;;24.50;13.57;;;;;;;;;;7390989;19;20198;-79
2022/03/22 06:44:31;;;;;;;18.67;11.80;;;;;;;;;;7390396;19;20138;-79
2022/03/22 06:47:03;;;;;;;18.30;12.82;;;;;;;;;;7389814;19;20131;-79
2022/03/22 06:49:32;;;;;;;23.08;13.45;;;;;;;;;;7392053;19;20135;-74
2022/03/22 06:52:02;;;;;;;21.52;13.88;;;;;;;;;;7388512;19;20166;-74
2022/03/22 06:54:32;;;;;;;20.10;12.52;;;;;;;;;;7384416;19;20162;-74
2022/03/22 06:57:05;;;;;;;21.95;12.90;;;;;;;;;;7374623;19;20156;-73
2022/03/22 06:59:34;;;;;;;17.90;11.77;;;;;;;;;;7387282;19;20162;-73
2022/03/22 07:02:05;;;;;;;19.40;12.75;;;;;;;;;;7382613;19;20482;-74
2022/03/22 07:04:34;;;;;;;22.23;13.68;;;;;;;;;;7380861;19;20172;-74
2022/03/22 07:07:04;;;;;;;22.50;12.88;;;;;;;;;;7384727;19;20148;-74
2022/03/22 07:09:34;;;;;;;21.40;13.45;;;;;;;;;;7383221;19;20139;-74
2022/03/22 07:12:06;;;;;;;21.25;14.57;;;;;;;;;;7386798;19;20256;-75
2022/03/22 07:14:40;;;;;;;23.02;13.25;;;;;;;;;;7383153;19;20600;-74
2022/03/22 07:17:10;;;;;;;26.90;13.60;;;;;;;;;;7383810;19;20614;-74
2022/03/22 07:19:40;;;;;;;17.70;12.68;;;;;;;;;;7384709;19;20160;-75
2022/03/22 07:22:11;;;;;;;23.55;13.80;;;;;;;;;;7384550;19;20148;-75
2022/03/22 07:24:41;;;;;;;24.70;13.70;;;;;;;;;;7388240;19;20147;-74
2022/03/22 07:27:13;;;;;;;19.13;12.83;;;;;;;;;;7386810;19;20860;-74
2022/03/22 07:29:42;;;;;;;19.40;13.63;;;;;;;;;;7381630;19;20420;-75
2022/03/22 07:32:12;;;;;;;19.67;14.63;;;;;;;;;;7384190;19;20978;-74
2022/03/22 07:34:41;;;;;;;19.80;13.80;;;;;;;;;;7382936;19;20530;-74
2022/03/22 07:37:13;;;;;;;21.50;15.10;;;;;;;;;;7381811;19;20746;-74
2022/03/22 07:39:43;;;;;;;21.37;13.70;;;;;;;;;;7384886;19;20475;-74
2022/03/22 07:42:15;;;;;;;19.20;14.40;;;;;;;;;;7381715;19;20396;-74
2022/03/22 07:44:45;;;;;;;20.97;14.30;;;;;;;;;;7383604;19;20871;-75
2022/03/22 07:47:15;;;;;;;24.40;16.30;;;;;;;;;;7383189;19;20726;-74
2022/03/22 07:55:10;;;;;;;20.77;15.77;;;;;;;;;;7379352;19;20483;-79
2022/03/22 07:57:42;;;;;;;21.97;15.10;;;;;;;;;;7385577;19;20475;-79
2022/03/22 08:00:13;;;;;;;25.20;16.27;;;;;;;;;;7383268;19;20400;-80
2022/03/22 08:02:52;;;;;;;24.20;15.90;;;;;;;;;;7382741;19;20412;-79
2022/03/22 08:05:22;;;;;;;22.50;15.27;;;;;;;;;;7384554;19;20424;-79
2022/03/22 08:07:53;;;;;;;26.13;15.37;;;;;;;;;;7383186;19;20391;-79
2022/03/22 08:10:23;;;;;;;21.33;15.90;;;;;;;;;;7383857;19;20382;-79
2022/03/22 08:12:56;;;;;;;21.53;14.97;;;;;;;;;;7382342;19;20416;-79
2022/03/22 08:15:26;;;;;;;26.70;15.37;;;;;;;;;;7381211;19;20373;-81
2022/03/22 08:17:56;;;;;;;25.67;15.03;;;;;;;;;;7382912;19;20415;-81
2022/03/22 08:20:27;;;;;;;20.07;14.87;;;;;;;;;;7381210;19;20371;-80
2022/03/22 08:22:58;;;;;;;23.03;15.07;;;;;;;;;;7382851;19;20396;-78
2022/03/22 08:25:29;;;;;;;21.90;15.00;;;;;;;;;;7386677;19;20484;-78
2022/03/22 08:28:02;;;;;;;21.07;15.33;;;;;;;;;;7384645;19;20401;-78
2022/03/22 08:30:34;;;;;;;18.87;14.23;;;;;;;;;;7384736;19;20376;-78
2022/03/22 08:33:07;;;;;;;20.80;15.17;;;;;;;;;;7381985;19;21006;-79
2022/03/22 08:35:38;;;;;;;20.40;14.20;;;;;;;;;;7386121;19;20430;-79
2022/03/22 08:38:10;;;;;;;18.87;13.00;;;;;;;;;;7383213;19;20384;-78
2022/03/22 08:40:40;;;;;;;17.80;14.00;;;;;;;;;;7379592;19;20404;-80
2022/03/22 08:43:12;;;;;;;23.70;14.50;;;;;;;;;;7377316;19;20400;-78
2022/03/22 08:45:42;;;;;;;18.57;14.70;;;;;;;;;;7380963;19;20863;-79
2022/03/22 08:48:15;;;;;;;20.40;15.10;;;;;;;;;;7378130;19;20417;-78
2022/03/22 08:50:45;;;;;;;20.70;16.67;;;;;;;;;;7382243;19;20408;-78
2022/03/22 08:53:16;;;;;;;19.73;16.07;;;;;;;;;;7383684;19;20959;-78
2022/03/22 08:55:46;;;;;;;18.30;15.47;;;;;;;;;;7377906;19;20469;-79
2022/03/22 08:58:21;;;;;;;21.77;15.47;;;;;;;;;;7378803;19;20408;-79
2022/03/22 09:00:50;;;;;;;18.10;15.77;;;;;;;;;;7380085;19;20484;-79
2022/03/22 09:03:21;;;;;;;23.27;16.77;;;;;;;;;;7379775;19;20384;-79
2022/03/22 09:08:33;;;;;;;18.43;16.40;;;;;;;;;;7380686;19;20408;-80
2022/03/22 09:11:03;;;;;;;16.77;14.97;;;;;;;;;;7379254;19;20392;-80
2022/03/22 09:13:37;;;;;;;17.83;15.93;;;;;;;;;;7373646;19;20993;-79
2022/03/22 09:16:09;;;;;;;17.97;15.53;;;;;;;;;;7377264;19;20413;-79
2022/03/22 09:18:39;;;;;;;20.13;15.30;;;;;;;;;;7377921;19;20947;-80
2022/03/22 09:21:10;;;;;;;17.43;15.63;;;;;;;;;;7377157;19;20854;-80
2022/03/22 09:23:40;;;;;;;17.63;15.83;;;;;;;;;;7381709;19;20509;-80
2022/03/22 09:26:12;;;;;;;18.10;16.20;;;;;;;;;;7377936;19;20455;-80
2022/03/22 09:28:52;;;;;;;17.70;16.00;;;;;;;;;;7380242;19;20408;-80
2022/03/22 09:31:23;;;;;;;17.90;16.07;;;;;;;;;;7408531;19;20415;-80
2022/03/22 09:33:52;;;;;;;19.00;15.67;;;;;;;;;;7419120;19;20493;-80
2022/03/22 09:36:22;;;;;;;17.47;15.17;;;;;;;;;;7420402;19;20437;-78
2022/03/22 09:38:52;;;;;;;19.13;17.13;;;;;;;;;;7416273;19;20404;-80
2022/03/22 09:41:22;;;;;;;20.57;15.57;;;;;;;;;;7419973;19;20412;-79
2022/03/22 09:43:54;;;;;;;20.00;14.87;;;;;;;;;;7415489;19;20460;-79
2022/03/22 09:46:26;;;;;;;18.73;15.57;;;;;;;;;;7416692;19;20433;-79
2022/03/22 09:48:57;;;;;;;19.63;17.20;;;;;;;;;;7423073;19;20444;-79
2022/03/22 09:54:09;;;;;;;16.77;14.70;;;;;;;;;;7428157;19;20405;-79
2022/03/22 09:56:38;;;;;;;20.07;14.83;;;;;;;;;;7428092;19;20447;-80
2022/03/22 09:59:11;;;;;;;16.97;15.30;;;;;;;;;;7428996;19;20417;-81
2022/03/22 10:01:41;;;;;;;16.90;15.10;;;;;;;;;;7429901;19;20388;-81
2022/03/22 10:04:16;;;;;;;16.77;15.07;;;;;;;;;;7432184;19;20417;-80
2022/03/22 10:06:54;;;;;;;17.20;15.47;;;;;;;;;;7414790;19;20920;-81
2022/03/22 10:09:31;;;;;;;17.50;15.67;;;;;;;;;;7394351;19;20367;-81
2022/03/22 10:12:01;;;;;;;17.93;16.07;;;;;;;;;;7391286;19;20367;-81
2022/03/22 10:14:42;;;;;;;17.97;16.00;;;;;;;;;;7387498;19;20405;-81
2022/03/22 10:17:13;;;;;;;18.93;16.80;;;;;;;;;;7387036;19;20500;-81
2022/03/22 10:19:44;;;;;;;17.27;15.57;;;;;;;;;;7385878;19;20423;-81
2022/03/22 10:22:14;;;;;;;19.63;16.67;;;;;;;;;;7384968;19;21214;-81
2022/03/22 10:24:55;;;;;;;17.30;15.50;;;;;;;;;;7386434;19;20384;-80
2022/03/22 10:27:28;;;;;;;18.20;16.50;;;;;;;;;;7382234;19;20423;-80
2022/03/22 10:30:01;;;;;;;20.90;16.77;;;;;;;;;;7383358;19;20510;-80
2022/03/22 10:32:34;;;;;;;17.80;16.00;;;;;;;;;;7383656;19;20404;-81
2022/03/22 10:35:14;;;;;;;18.93;16.40;;;;;;;;;;7383262;19;20841;-81
2022/03/22 10:37:46;;;;;;;23.50;17.27;;;;;;;;;;7378495;19;20419;-81
2022/03/22 10:40:25;;;;;;;17.80;15.73;;;;;;;;;;7379712;19;20767;-81
2022/03/22 10:42:58;;;;;;;18.17;16.37;;;;;;;;;;7377792;19;20372;-81
2022/03/22 10:45:32;;;;;;;18.03;16.20;;;;;;;;;;7379874;19;20391;-81
2022/03/22 10:48:04;;;;;;;17.37;15.77;;;;;;;;;;7377869;19;20419;-81
2022/03/22 10:50:39;;;;;;;17.93;16.10;;;;;;;;;;7378991;19;20416;-81
2022/03/22 10:53:08;;;;;;;18.40;16.50;;;;;;;;;;7378584;19;21600;-81
2022/03/22 10:55:40;;;;;;;18.30;16.20;;;;;;;;;;7379287;19;20463;-81
2022/03/22 10:58:10;;;;;;;17.60;16.00;;;;;;;;;;7378247;19;20415;-81
2022/03/22 11:00:45;;;;;;;17.43;15.77;;;;;;;;;;7377232;19;21003;-81
2022/03/22 11:03:17;;;;;;;17.50;15.70;;;;;;;;;;7379920;19;20430;-81
2022/03/22 11:05:48;;;;;;;19.13;17.40;;;;;;;;;;7379756;19;20412;-81
2022/03/22 11:08:21;;;;;;;18.13;16.30;;;;;;;;;;7378496;19;20424;-81
2022/03/22 11:10:53;;;;;;;18.67;15.60;;;;;;;;;;7380458;19;20411;-79
2022/03/22 11:13:23;;;;;;;18.23;16.33;;;;;;;;;;7377816;19;20431;-80
2022/03/22 11:15:55;;;;;;;128.07;24.63;;;;;;;;;;7377468;19;20419;-80
2022/03/22 11:18:28;;;;;;;16.87;15.27;;;;;;;;;;7379194;19;20801;-79
2022/03/22 11:20:59;;;;;;;18.03;16.30;;;;;;;;;;7377626;19;20420;-79
2022/03/22 11:23:29;;;;;;;16.93;15.27;;;;;;;;;;7378338;19;20960;-79
2022/03/22 11:26:09;;;;;;;19.00;16.53;;;;;;;;;;7383015;19;20800;-80
2022/03/22 11:28:41;;;;;;;19.10;16.90;;;;;;;;;;7384816;19;20517;-79
2022/03/22 11:31:14;;;;;;;17.50;15.80;;;;;;;;;;7385274;19;20483;-79
2022/03/22 11:36:29;;;;;;;18.53;16.63;;;;;;;;;;7385166;19;20404;-79
2022/03/22 11:38:59;;;;;;;17.87;16.00;;;;;;;;;;7381806;19;21286;-81
2022/03/22 11:44:15;;;;;;;18.53;16.83;;;;;;;;;;7374340;19;20408;-81
2022/03/22 11:46:47;;;;;;;16.40;14.80;;;;;;;;;;7381446;19;20937;-83
2022/03/22 11:49:18;;;;;;;17.60;15.87;;;;;;;;;;7381425;19;20488;-82
2022/03/22 11:51:55;;;;;;;16.43;14.87;;;;;;;;;;7380726;19;20427;-82
2022/03/22 11:54:25;;;;;;;19.20;16.07;;;;;;;;;;7382136;19;20428;-82
2022/03/22 11:56:56;;;;;;;17.37;15.77;;;;;;;;;;7379047;19;20887;-82
2022/03/22 11:59:26;;;;;;;15.77;14.20;;;;;;;;;;7378968;19;20827;-81
2022/03/22 12:02:02;;;;;;;16.43;14.70;;;;;;;;;;7384858;19;20407;-81
2022/03/22 12:04:43;;;;;;;15.73;14.23;;;;;;;;;;7382762;19;21272;-82
2022/03/22 12:07:15;;;;;;;16.90;15.30;;;;;;;;;;7376089;19;20419;-81
2022/03/22 12:09:47;;;;;;;17.40;15.70;;;;;;;;;;7383532;19;20404;-82
2022/03/22 12:12:17;;;;;;;17.73;16.00;;;;;;;;;;7380009;19;20512;-82
2022/03/22 12:14:51;;;;;;;16.33;14.93;;;;;;;;;;7384038;19;20484;-82
2022/03/22 12:17:23;;;;;;;16.93;15.40;;;;;;;;;;7385947;19;20924;-81
2022/03/22 12:19:52;;;;;;;16.77;15.27;;;;;;;;;;7380181;19;21361;-82
2022/03/22 12:22:25;;;;;;;17.00;15.30;;;;;;;;;;7383012;19;20528;-82
2022/03/22 12:25:00;;;;;;;18.80;16.53;;;;;;;;;;7384363;19;20368;-82
2022/03/22 12:27:30;;;;;;;16.47;14.97;;;;;;;;;;7381237;19;20447;-81
2022/03/22 12:30:02;;;;;;;17.13;15.63;;;;;;;;;;7383335;19;20376;-82
2022/03/22 12:32:34;;;;;;;16.03;14.50;;;;;;;;;;7382264;19;21442;-82
2022/03/22 12:35:04;;;;;;;17.97;16.07;;;;;;;;;;7380669;19;20408;-81
2022/03/22 12:37:34;;;;;;;17.37;15.77;;;;;;;;;;7387686;19;20396;-84
2022/03/22 12:40:04;;;;;;;18.43;16.50;;;;;;;;;;7416404;19;20452;-80
2022/03/22 12:42:34;;;;;;;17.20;15.60;;;;;;;;;;7412584;19;20430;-83
2022/03/22 12:45:03;;;;;;;17.47;15.93;;;;;;;;;;7410601;19;20409;-83
2022/03/22 12:47:39;;;;;;;18.93;17.00;;;;;;;;;;7418706;19;20404;-83
2022/03/22 12:50:10;;;;;;;17.13;15.60;;;;;;;;;;7416779;19;20424;-83
2022/03/22 12:52:42;;;;;;;16.43;14.93;;;;;;;;;;7417241;19;20437;-82
2022/03/22 12:55:13;;;;;;;17.60;15.80;;;;;;;;;;7419816;19;20439;-82
2022/03/22 12:57:46;;;;;;;16.13;14.60;;;;;;;;;;7422040;19;20434;-83
2022/03/22 13:00:31;;;;;;;17.27;15.57;;;;;;;;;;7420698;19;20395;-84
2022/03/22 13:03:07;;;;;;;17.00;15.23;;;;;;;;;;7419777;19;20397;-82
2022/03/22 13:05:41;;;;;;;16.57;15.07;;;;;;;;;;7426823;19;20419;-82
2022/03/22 13:08:14;;;;;;;17.03;15.43;;;;;;;;;;7403530;19;20738;-84
2022/03/22 13:15:01;;;;;;;16.53;14.53;;;;;;;;;;7388753;19;20445;-82
2022/03/22 13:16:22;;;;;;;18.30;15.57;;;;;;;;;;7381846;19;20425;-82
2022/03/22 13:18:59;;;;;;;16.87;15.17;;;;;;;;;;7359128;19;21254;-83
2022/03/22 13:21:30;;;;;;;18.10;14.77;;;;;;;;;;7375351;19;20412;-83
2022/03/22 13:24:03;;;;;;;16.93;15.10;;;;;;;;;;7381385;19;20908;-84
2022/03/22 13:26:33;;;;;;;15.83;14.30;;;;;;;;;;7382632;19;20878;-83
2022/03/22 13:29:14;;;;;;;17.23;15.63;;;;;;;;;;7381145;19;20417;-83
2022/03/22 13:31:56;;;;;;;18.27;16.33;;;;;;;;;;7377243;19;20400;-83
2022/03/22 13:34:32;;;;;;;17.23;15.20;;;;;;;;;;7375584;19;20412;-83
2022/03/22 13:37:09;;;;;;;16.90;15.30;;;;;;;;;;7379167;19;20467;-84
2022/03/22 13:39:38;;;;;;;17.30;15.70;;;;;;;;;;7380076;19;20412;-84
2022/03/22 13:42:13;;;;;;;17.73;15.93;;;;;;;;;;7382465;19;20416;-84
2022/03/22 13:44:46;;;;;;;16.50;14.90;;;;;;;;;;7377369;19;20501;-83
2022/03/22 13:47:26;;;;;;;17.10;15.40;;;;;;;;;;7381872;19;20920;-84
2022/03/22 13:50:01;;;;;;;16.83;15.13;;;;;;;;;;7379114;19;20503;-84
2022/03/22 13:52:32;;;;;;;16.83;15.17;;;;;;;;;;7374821;19;20421;-83
2022/03/22 13:55:02;;;;;;;18.57;15.23;;;;;;;;;;7375544;19;21315;-83
2022/03/22 13:57:39;;;;;;;15.10;13.63;;;;;;;;;;7372853;19;20412;-82
2022/03/22 14:00:12;;;;;;;17.67;15.97;;;;;;;;;;7379854;19;20375;-83
2022/03/22 14:02:44;;;;;;;17.13;15.33;;;;;;;;;;7378371;19;20391;-83
2022/03/22 14:05:16;;;;;;;15.03;13.67;;;;;;;;;;7373556;19;20408;-83
2022/03/22 14:07:54;;;;;;;16.90;15.10;;;;;;;;;;7380222;19;20407;-84
2022/03/22 14:10:27;;;;;;;15.77;14.37;;;;;;;;;;7381250;19;20443;-83
2022/03/22 14:13:02;;;;;;;15.97;14.27;;;;;;;;;;7380022;19;20462;-83
2022/03/22 14:15:31;;;;;;;16.83;15.13;;;;;;;;;;7378017;19;20420;-84
2022/03/22 14:18:04;;;;;;;16.97;15.37;;;;;;;;;;7380697;19;20380;-83
2022/03/22 14:20:36;;;;;;;17.03;15.23;;;;;;;;;;7374110;19;20540;-84
2022/03/22 14:23:06;;;;;;;17.60;15.87;;;;;;;;;;7375955;19;20404;-85
2022/03/22 14:25:36;;;;;;;16.47;14.70;;;;;;;;;;7380940;19;20415;-84
2022/03/22 14:28:06;;;;;;;17.27;15.43;;;;;;;;;;7378246;19;20814;-84
2022/03/22 14:30:37;;;;;;;18.30;15.33;;;;;;;;;;7375618;19;20414;-82
2022/03/22 14:33:10;;;;;;;16.80;14.97;;;;;;;;;;7374199;19;20479;-84
2022/03/22 14:35:57;;;;;;;18.13;15.20;;;;;;;;;;7366747;19;20413;-82
2022/03/22 14:38:27;;;;;;;20.33;15.90;;;;;;;;;;7369612;19;20388;-81
2022/03/22 14:41:00;;;;;;;15.30;13.70;;;;;;;;;;7373968;19;20776;-83
2022/03/22 14:43:30;;;;;;;16.57;14.87;;;;;;;;;;7371803;19;20389;-84
2022/03/22 14:46:00;;;;;;;17.90;15.97;;;;;;;;;;7379310;19;21218;-83
2022/03/22 14:48:30;;;;;;;17.43;15.50;;;;;;;;;;7376510;19;20376;-83
2022/03/22 14:51:02;;;;;;;19.93;14.20;;;;;;;;;;7376543;19;20395;-83
2022/03/22 14:58:56;;;;;;;108.43;28.23;;;;;;;;;;7376259;19;20383;-83
2022/03/22 15:01:28;;;;;;;82.53;23.70;;;;;;;;;;7382945;19;20392;-82
2022/03/22 15:03:58;;;;;;;17.53;14.50;;;;;;;;;;7386572;19;20920;-82
2022/03/22 15:06:31;;;;;;;23.63;15.03;;;;;;;;;;7387443;19;21116;-82
2022/03/22 15:09:02;;;;;;;19.47;14.57;;;;;;;;;;7384531;19;21070;-82
2022/03/22 15:11:33;;;;;;;15.47;13.70;;;;;;;;;;7385808;19;20483;-82
2022/03/22 15:14:05;;;;;;;20.60;16.57;;;;;;;;;;7382819;19;20411;-81
2022/03/22 15:16:36;;;;;;;19.37;14.27;;;;;;;;;;7383123;19;20918;-81
2022/03/22 15:19:06;;;;;;;24.10;15.37;;;;;;;;;;7380667;19;20928;-81
2022/03/22 15:21:38;;;;;;;19.33;14.57;;;;;;;;;;7378868;19;21059;-82
2022/03/22 15:24:08;;;;;;;21.03;14.70;;;;;;;;;;7383542;19;20384;-82
2022/03/22 15:26:38;;;;;;;18.80;13.27;;;;;;;;;;7378379;19;20408;-81
2022/03/22 15:29:08;;;;;;;17.07;13.80;;;;;;;;;;7380801;19;20458;-82
2022/03/22 15:31:37;;;;;;;20.70;14.97;;;;;;;;;;7379670;19;20906;-82
2022/03/22 15:34:07;;;;;;;56.93;18.77;;;;;;;;;;7377682;19;21311;-82